Volcan Del Teide — EAIE — position and weather

sailwx.info

Track history (hours):
 
Tides and Currents Weather Stations Pressure Air Temp Water Temp Dewpoint Dewpoint Depression Visibility Wind Speed Wind Dir Waves Ship Positions

Volcan Del Teide

Last reported at 2017-Nov-20 00:30 UTC. Time now 2017-Nov-22 13:11 UTC.
Position N 28°24' W 015°58'.

Length 175 m; draft 6.5 m.

Type: Passenger vessel. MMSI: 225416000.

Date/timePositionNaut miles runAvg speedWind from/ knotsBaromVisibWave heightAir tempDewpointWater temp
2017-Nov-20 00:30N 28°24' W 015°58'1224.7
2017-Nov-20 00:01N 28°19' W 015°45'1224.3
2017-Nov-19 23:30N 28°15' W 015°32'1019.0
2017-Nov-19 23:00N 28°09' W 015°24'1 1.6
2017-Nov-19 22:30N 28°10' W 015°24'0 0.0
2017-Nov-19 22:00N 28°10' W 015°24'0 0.0
2017-Nov-19 21:31N 28°10' W 015°24'0 0.0
2017-Nov-19 21:00N 28°10' W 015°24'1 1.2
2017-Nov-19 20:31N 28°09' W 015°24'1121.3
2017-Nov-19 20:00N 28°14' W 015°13'1224.0
2017-Nov-19 19:31N 28°19' W 015°01'1224.0
2017-Nov-19 19:00N 28°25' W 014°49'1223.6
2017-Nov-19 18:31N 28°30' W 014°37'44721.5
2017-Nov-18 21:42N 34°19' W 009°10'524.4
2017-Nov-18 21:30N 34°23' W 009°07'132 4.3
2017-Nov-17 14:49N 36°16' W 007°42'48623.7
2017-Nov-16 18:17N 30°17' W 014°15'1523.9
2017-Nov-16 17:41N 30°07' W 014°26'524.0
2017-Nov-16 17:29N 30°03' W 014°30'1224.1
2017-Nov-16 17:00N 29°55' W 014°39'1324.4
2017-Nov-16 16:28N 29°45' W 014°49'1124.6
2017-Nov-16 16:00N 29°37' W 014°58'1324.4
2017-Nov-16 15:29N 29°27' W 015°07'1224.5
2017-Nov-16 15:00N 29°19' W 015°17'1224.5
2017-Nov-16 14:31N 29°10' W 015°26'1324.2
2017-Nov-16 13:59N 29°00' W 015°36'1123.7
2017-Nov-16 13:30N 28°52' W 015°45'1223.1
2017-Nov-16 13:00N 28°43' W 015°53'1122.3
2017-Nov-16 12:30N 28°35' W 016°02'1020.3
2017-Nov-16 12:00N 28°29' W 016°11'3 6.3
2017-Nov-16 11:30N 28°28' W 016°15'0 0.0
2017-Nov-16 11:00N 28°28' W 016°15'0 0.0
2017-Nov-16 10:30N 28°28' W 016°15'4 7.5
2017-Nov-16 10:00N 28°28' W 016°10'1121.6
2017-Nov-16 09:30N 28°24' W 015°59'1121.5
2017-Nov-16 09:00N 28°20' W 015°47'1121.5
2017-Nov-16 08:30N 28°16' W 015°36'1121.2
2017-Nov-16 08:00N 28°13' W 015°25'3 6.6
2017-Nov-16 07:30N 28°10' W 015°24'0 0.0
2017-Nov-16 07:00N 28°10' W 015°24'0 0.0
2017-Nov-16 06:30N 28°10' W 015°24'0 0.0
2017-Nov-16 06:00N 28°10' W 015°24'0 0.0
2017-Nov-16 05:30N 28°10' W 015°24'0 0.0
2017-Nov-16 05:00N 28°10' W 015°24'0 0.0
2017-Nov-16 04:30N 28°10' W 015°24'0 0.0
2017-Nov-16 04:00N 28°10' W 015°24'0 0.0
2017-Nov-16 03:30N 28°10' W 015°24'0 0.0
2017-Nov-16 03:00N 28°10' W 015°24'0 0.0
2017-Nov-16 02:30N 28°10' W 015°24'0 0.0
2017-Nov-16 02:00N 28°10' W 015°24'0 0.0
2017-Nov-16 01:30N 28°10' W 015°24'0 0.0
2017-Nov-16 01:00N 28°10' W 015°24'0 0.0
2017-Nov-16 00:30N 28°10' W 015°24'0 0.0
2017-Nov-16 00:00N 28°10' W 015°24'0 0.0
2017-Nov-15 23:30N 28°10' W 015°24'0 0.0
2017-Nov-15 23:00N 28°10' W 015°24'0 0.0
2017-Nov-15 22:30N 28°10' W 015°24'0 0.0
2017-Nov-15 22:00N 28°10' W 015°24'0 0.0
2017-Nov-15 21:30N 28°10' W 015°24'0 0.0
2017-Nov-15 21:00N 28°10' W 015°24'0 0.0
2017-Nov-15 20:30N 28°10' W 015°24'0 0.0
2017-Nov-15 20:00N 28°10' W 015°24'0 0.0
2017-Nov-15 19:30N 28°10' W 015°24'0 0.0
2017-Nov-15 19:00N 28°10' W 015°24'0 0.0
2017-Nov-15 18:30N 28°10' W 015°24'0 0.0
2017-Nov-15 18:00N 28°10' W 015°24'0 0.0
2017-Nov-15 17:30N 28°10' W 015°24'0 0.0
2017-Nov-15 17:00N 28°10' W 015°24'1 2.9
2017-Nov-15 16:30N 28°10' W 015°22'1020.9
2017-Nov-15 16:00N 28°14' W 015°12'1020.6
2017-Nov-15 15:30N 28°19' W 015°01'1020.5
2017-Nov-15 15:00N 28°24' W 014°51'1020.3
2017-Nov-15 14:30N 28°28' W 014°41'1120.6
2017-Nov-15 14:00N 28°33' W 014°30'1420.8
2017-Nov-15 13:20N 28°40' W 014°16'720.3
2017-Nov-15 13:00N 28°43' W 014°09'1020.0
2017-Nov-15 12:29N 28°47' W 013°59'1020.8
2017-Nov-15 12:01N 28°49' W 013°48'1221.1
2017-Nov-15 11:28N 28°54' W 013°36'510.9
2017-Nov-15 10:59N 28°58' W 013°32'0 0.0
2017-Nov-15 10:23N 28°58' W 013°32'0 0.0
2017-Nov-15 09:05N 28°58' W 013°32'0 0.0
2017-Nov-15 08:40N 28°58' W 013°32'0 0.0
2017-Nov-15 08:30N 28°58' W 013°32'0 0.0
2017-Nov-15 07:38N 28°58' W 013°32'0 0.0
2017-Nov-15 07:26N 28°58' W 013°32'0 0.0
2017-Nov-15 06:50N 28°58' W 013°32'0 1.3
2017-Nov-15 06:29N 28°58' W 013°32'916.1
2017-Nov-15 05:54N 28°52' W 013°41'1120.5
2017-Nov-15 05:23N 28°48' W 013°52'820.3
2017-Nov-15 04:59N 28°46' W 014°01'1920.2
2017-Nov-15 04:02N 28°38' W 014°21'320.2
2017-Nov-15 03:55N 28°37' W 014°23'819.9
2017-Nov-15 03:30N 28°33' W 014°31'1019.7
2017-Nov-15 03:00N 28°28' W 014°41'1019.9
2017-Nov-15 02:30N 28°23' W 014°51'1019.8
2017-Nov-15 02:00N 28°19' W 015°01'1019.9
2017-Nov-15 01:30N 28°14' W 015°11'1020.3
2017-Nov-15 01:00N 28°10' W 015°21'2 4.6
2017-Nov-15 00:30N 28°10' W 015°24'0 0.0
2017-Nov-15 00:00N 28°10' W 015°24'0 0.0
2017-Nov-14 23:30N 28°10' W 015°24'0 0.0
2017-Nov-14 23:00N 28°10' W 015°24'0 0.0
2017-Nov-14 22:30N 28°10' W 015°24'0 0.0
2017-Nov-14 22:01N 28°10' W 015°24'0 0.0
2017-Nov-14 21:31N 28°10' W 015°24'0 0.0
2017-Nov-14 21:01N 28°10' W 015°24'0 0.0
2017-Nov-14 20:31N 28°10' W 015°24'0 0.0
2017-Nov-14 20:00N 28°10' W 015°24'0 0.0
2017-Nov-14 19:30N 28°10' W 015°24'0 0.0
2017-Nov-14 19:00N 28°10' W 015°24'0 0.0
2017-Nov-14 18:30N 28°10' W 015°24'0 0.0
2017-Nov-14 18:00N 28°10' W 015°24'0 0.0
2017-Nov-14 17:30N 28°10' W 015°24'0 0.0
2017-Nov-14 17:01N 28°10' W 015°24'3 5.4
2017-Nov-14 16:30N 28°10' W 015°21'1020.7
2017-Nov-14 16:00N 28°15' W 015°10'1020.4
2017-Nov-14 15:30N 28°19' W 015°00'1020.4
2017-Nov-14 15:00N 28°24' W 014°50'1020.3
2017-Nov-14 14:30N 28°29' W 014°39'1120.6
2017-Nov-14 13:57N 28°34' W 014°28'2120.4
2017-Nov-14 12:56N 28°44' W 014°07'920.4
2017-Nov-14 12:30N 28°47' W 013°58'1120.8
2017-Nov-14 12:00N 28°50' W 013°46'1121.3
2017-Nov-14 11:27N 28°55' W 013°35'4 7.6
2017-Nov-14 10:57N 28°58' W 013°32'0 0.0
2017-Nov-14 10:21N 28°58' W 013°32'0 0.0
2017-Nov-14 09:57N 28°58' W 013°32'0 0.0
2017-Nov-14 09:29N 28°58' W 013°32'0 0.0
2017-Nov-14 08:59N 28°58' W 013°32'0 0.0
2017-Nov-14 08:27N 28°58' W 013°32'0 0.0
2017-Nov-14 07:58N 28°58' W 013°32'0 0.0
2017-Nov-14 07:27N 28°58' W 013°32'0 0.0
2017-Nov-14 07:00N 28°58' W 013°32'0 0.3
2017-Nov-14 06:30N 28°58' W 013°32'611.9
2017-Nov-14 06:00N 28°54' W 013°37'1120.6
2017-Nov-14 05:30N 28°49' W 013°47'1019.8
2017-Nov-14 04:59N 28°47' W 013°58'919.4
2017-Nov-14 04:30N 28°43' W 014°08'1019.8
2017-Nov-14 03:59N 28°39' W 014°19'919.5
2017-Nov-14 03:30N 28°34' W 014°28'1019.3
2017-Nov-14 03:00N 28°30' W 014°38'919.2
2017-Nov-14 02:30N 28°26' W 014°48'1019.3
2017-Nov-14 02:00N 28°21' W 014°58'1019.3
2017-Nov-14 01:30N 28°17' W 015°07'1019.5
2017-Nov-14 01:00N 28°12' W 015°17'612.9
2017-Nov-14 00:30N 28°10' W 015°24'0 0.1
2017-Nov-14 00:00N 28°10' W 015°24'0 0.0
2017-Nov-13 23:30N 28°10' W 015°24'0 0.0
2017-Nov-13 23:00N 28°10' W 015°24'0 0.0
2017-Nov-13 22:30N 28°10' W 015°24'0 0.0
2017-Nov-13 22:00N 28°10' W 015°24'48 2.4
2017-Nov-13 02:00N 28°28' W 016°15'2 3.2
2017-Nov-13 01:31N 28°29' W 016°13'1223.6
2017-Nov-13 01:00N 28°24' W 016°00'1224.2
2017-Nov-13 00:31N 28°20' W 015°48'1224.1
2017-Nov-13 00:01N 28°15' W 015°35'1223.6
2017-Nov-12 23:31N 28°10' W 015°23'1 2.7
2017-Nov-12 23:00N 28°10' W 015°24'0 0.0
2017-Nov-12 22:30N 28°10' W 015°24'0 0.0
2017-Nov-12 22:00N 28°10' W 015°24'0 0.0
2017-Nov-12 21:31N 28°10' W 015°24'1 1.4
2017-Nov-12 21:00N 28°09' W 015°23'1020.9
2017-Nov-12 20:31N 28°14' W 015°13'1224.2
2017-Nov-12 20:00N 28°19' W 015°01'1224.0
2017-Nov-12 19:30N 28°25' W 014°49'1224.2
2017-Nov-12 19:00N 28°30' W 014°36'1223.8
2017-Nov-12 18:30N 28°36' W 014°24'1223.6
2017-Nov-12 18:00N 28°41' W 014°12'1223.6
2017-Nov-12 17:31N 28°46' W 014°00'1224.4
2017-Nov-12 17:01N 28°50' W 013°47'1224.8
2017-Nov-12 16:30N 28°55' W 013°34'4 7.1
2017-Nov-12 15:59N 28°58' W 013°32'0 0.0
2017-Nov-12 15:29N 28°58' W 013°32'0 0.5
2017-Nov-12 15:00N 28°58' W 013°32'713.4
2017-Nov-12 14:30N 29°02' W 013°25'1224.0
2017-Nov-12 14:00N 29°12' W 013°17'1223.7
2017-Nov-12 13:30N 29°22' W 013°10'1223.5
2017-Nov-12 12:59N 29°32' W 013°02'1123.7
2017-Nov-12 12:30N 29°41' W 012°55'1223.9
2017-Nov-12 12:01N 29°51' W 012°47'1223.7
2017-Nov-12 11:30N 30°01' W 012°39'1223.4
2017-Nov-12 11:00N 30°10' W 012°32'1423.3
2017-Nov-12 10:24N 30°22' W 012°23'923.1
2017-Nov-12 10:00N 30°30' W 012°17'1223.3
2017-Nov-12 09:31N 30°39' W 012°09'1223.3
2017-Nov-12 09:01N 30°49' W 012°01'3623.7
2017-Nov-12 07:30N 31°19' W 011°39'1223.8
2017-Nov-12 07:00N 31°28' W 011°30'3524.0
2017-Nov-12 05:32N 31°57' W 011°06'77 1.7
2017-Nov-10 07:31N 33°09' W 010°32'021.1
2017-Nov-10 07:30N 33°08' W 010°32'1121.8
2017-Nov-10 07:01N 32°60' W 010°39'1121.5
2017-Nov-10 06:30N 32°51' W 010°47'1321.3
2017-Nov-10 05:55N 32°40' W 010°55'1121.1
2017-Nov-10 05:24N 32°31' W 011°03'1221.2
2017-Nov-10 04:50N 32°22' W 011°12'721.0
2017-Nov-10 04:29N 32°16' W 011°16'1421.0
2017-Nov-10 03:51N 32°05' W 011°26'1521.2
2017-Nov-10 03:09N 31°53' W 011°36'1521.0
2017-Nov-10 02:26N 31°41' W 011°46'3920.5
2017-Nov-10 00:31N 31°09' W 012°12'  
Track history (hours):
 
Tides and Currents Weather Stations Pressure Air Temp Water Temp Dewpoint Dewpoint Depression Visibility Wind Speed Wind Dir Waves Ship Positions

Volcan Del Teide

Last reported at 2017-Nov-20 00:30 UTC. Time now 2017-Nov-22 13:11 UTC.
Position N 28°24' W 015°58'.

Length 175 m; draft 6.5 m.

Type: Passenger vessel. MMSI: 225416000.

Date/timePositionNaut miles runAvg speedWind from/ knotsBaromVisibWave heightAir tempDewpointWater temp
2017-Nov-20 00:30N 28°24' W 015°58'1224.7
2017-Nov-20 00:01N 28°19' W 015°45'1224.3
2017-Nov-19 23:30N 28°15' W 015°32'1019.0
2017-Nov-19 23:00N 28°09' W 015°24'1 1.6
2017-Nov-19 22:30N 28°10' W 015°24'0 0.0
2017-Nov-19 22:00N 28°10' W 015°24'0 0.0
2017-Nov-19 21:31N 28°10' W 015°24'0 0.0
2017-Nov-19 21:00N 28°10' W 015°24'1 1.2
2017-Nov-19 20:31N 28°09' W 015°24'1121.3
2017-Nov-19 20:00N 28°14' W 015°13'1224.0
2017-Nov-19 19:31N 28°19' W 015°01'1224.0
2017-Nov-19 19:00N 28°25' W 014°49'1223.6
2017-Nov-19 18:31N 28°30' W 014°37'44721.5
2017-Nov-18 21:42N 34°19' W 009°10'524.4
2017-Nov-18 21:30N 34°23' W 009°07'132 4.3
2017-Nov-17 14:49N 36°16' W 007°42'48623.7
2017-Nov-16 18:17N 30°17' W 014°15'1523.9
2017-Nov-16 17:41N 30°07' W 014°26'524.0
2017-Nov-16 17:29N 30°03' W 014°30'1224.1
2017-Nov-16 17:00N 29°55' W 014°39'1324.4
2017-Nov-16 16:28N 29°45' W 014°49'1124.6
2017-Nov-16 16:00N 29°37' W 014°58'1324.4
2017-Nov-16 15:29N 29°27' W 015°07'1224.5
2017-Nov-16 15:00N 29°19' W 015°17'1224.5
2017-Nov-16 14:31N 29°10' W 015°26'1324.2
2017-Nov-16 13:59N 29°00' W 015°36'1123.7
2017-Nov-16 13:30N 28°52' W 015°45'1223.1
2017-Nov-16 13:00N 28°43' W 015°53'1122.3
2017-Nov-16 12:30N 28°35' W 016°02'1020.3
2017-Nov-16 12:00N 28°29' W 016°11'3 6.3
2017-Nov-16 11:30N 28°28' W 016°15'0 0.0
2017-Nov-16 11:00N 28°28' W 016°15'0 0.0
2017-Nov-16 10:30N 28°28' W 016°15'4 7.5
2017-Nov-16 10:00N 28°28' W 016°10'1121.6
2017-Nov-16 09:30N 28°24' W 015°59'1121.5
2017-Nov-16 09:00N 28°20' W 015°47'1121.5
2017-Nov-16 08:30N 28°16' W 015°36'1121.2
2017-Nov-16 08:00N 28°13' W 015°25'3 6.6
2017-Nov-16 07:30N 28°10' W 015°24'0 0.0
2017-Nov-16 07:00N 28°10' W 015°24'0 0.0
2017-Nov-16 06:30N 28°10' W 015°24'0 0.0
2017-Nov-16 06:00N 28°10' W 015°24'0 0.0
2017-Nov-16 05:30N 28°10' W 015°24'0 0.0
2017-Nov-16 05:00N 28°10' W 015°24'0 0.0
2017-Nov-16 04:30N 28°10' W 015°24'0 0.0
2017-Nov-16 04:00N 28°10' W 015°24'0 0.0
2017-Nov-16 03:30N 28°10' W 015°24'0 0.0
2017-Nov-16 03:00N 28°10' W 015°24'0 0.0
2017-Nov-16 02:30N 28°10' W 015°24'0 0.0
2017-Nov-16 02:00N 28°10' W 015°24'0 0.0
2017-Nov-16 01:30N 28°10' W 015°24'0 0.0
2017-Nov-16 01:00N 28°10' W 015°24'0 0.0
2017-Nov-16 00:30N 28°10' W 015°24'0 0.0
2017-Nov-16 00:00N 28°10' W 015°24'0 0.0
2017-Nov-15 23:30N 28°10' W 015°24'0 0.0
2017-Nov-15 23:00N 28°10' W 015°24'0 0.0
2017-Nov-15 22:30N 28°10' W 015°24'0 0.0
2017-Nov-15 22:00N 28°10' W 015°24'0 0.0
2017-Nov-15 21:30N 28°10' W 015°24'0 0.0
2017-Nov-15 21:00N 28°10' W 015°24'0 0.0
2017-Nov-15 20:30N 28°10' W 015°24'0 0.0
2017-Nov-15 20:00N 28°10' W 015°24'0 0.0
2017-Nov-15 19:30N 28°10' W 015°24'0 0.0
2017-Nov-15 19:00N 28°10' W 015°24'0 0.0
2017-Nov-15 18:30N 28°10' W 015°24'0 0.0
2017-Nov-15 18:00N 28°10' W 015°24'0 0.0
2017-Nov-15 17:30N 28°10' W 015°24'0 0.0
2017-Nov-15 17:00N 28°10' W 015°24'1 2.9
2017-Nov-15 16:30N 28°10' W 015°22'1020.9
2017-Nov-15 16:00N 28°14' W 015°12'1020.6
2017-Nov-15 15:30N 28°19' W 015°01'1020.5
2017-Nov-15 15:00N 28°24' W 014°51'1020.3
2017-Nov-15 14:30N 28°28' W 014°41'1120.6
2017-Nov-15 14:00N 28°33' W 014°30'1420.8
2017-Nov-15 13:20N 28°40' W 014°16'720.3
2017-Nov-15 13:00N 28°43' W 014°09'1020.0
2017-Nov-15 12:29N 28°47' W 013°59'1020.8
2017-Nov-15 12:01N 28°49' W 013°48'1221.1
2017-Nov-15 11:28N 28°54' W 013°36'510.9
2017-Nov-15 10:59N 28°58' W 013°32'0 0.0
2017-Nov-15 10:23N 28°58' W 013°32'0 0.0
2017-Nov-15 09:05N 28°58' W 013°32'0 0.0
2017-Nov-15 08:40N 28°58' W 013°32'0 0.0
2017-Nov-15 08:30N 28°58' W 013°32'0 0.0
2017-Nov-15 07:38N 28°58' W 013°32'0 0.0
2017-Nov-15 07:26N 28°58' W 013°32'0 0.0
2017-Nov-15 06:50N 28°58' W 013°32'0 1.3
2017-Nov-15 06:29N 28°58' W 013°32'916.1
2017-Nov-15 05:54N 28°52' W 013°41'1120.5
2017-Nov-15 05:23N 28°48' W 013°52'820.3
2017-Nov-15 04:59N 28°46' W 014°01'1920.2
2017-Nov-15 04:02N 28°38' W 014°21'320.2
2017-Nov-15 03:55N 28°37' W 014°23'819.9
2017-Nov-15 03:30N 28°33' W 014°31'1019.7
2017-Nov-15 03:00N 28°28' W 014°41'1019.9
2017-Nov-15 02:30N 28°23' W 014°51'1019.8
2017-Nov-15 02:00N 28°19' W 015°01'1019.9
2017-Nov-15 01:30N 28°14' W 015°11'1020.3
2017-Nov-15 01:00N 28°10' W 015°21'2 4.6
2017-Nov-15 00:30N 28°10' W 015°24'0 0.0
2017-Nov-15 00:00N 28°10' W 015°24'0 0.0
2017-Nov-14 23:30N 28°10' W 015°24'0 0.0
2017-Nov-14 23:00N 28°10' W 015°24'0 0.0
2017-Nov-14 22:30N 28°10' W 015°24'0 0.0
2017-Nov-14 22:01N 28°10' W 015°24'0 0.0
2017-Nov-14 21:31N 28°10' W 015°24'0 0.0
2017-Nov-14 21:01N 28°10' W 015°24'0 0.0
2017-Nov-14 20:31N 28°10' W 015°24'0 0.0
2017-Nov-14 20:00N 28°10' W 015°24'0 0.0
2017-Nov-14 19:30N 28°10' W 015°24'0 0.0
2017-Nov-14 19:00N 28°10' W 015°24'0 0.0
2017-Nov-14 18:30N 28°10' W 015°24'0 0.0
2017-Nov-14 18:00N 28°10' W 015°24'0 0.0
2017-Nov-14 17:30N 28°10' W 015°24'0 0.0
2017-Nov-14 17:01N 28°10' W 015°24'3 5.4
2017-Nov-14 16:30N 28°10' W 015°21'1020.7
2017-Nov-14 16:00N 28°15' W 015°10'1020.4
2017-Nov-14 15:30N 28°19' W 015°00'1020.4
2017-Nov-14 15:00N 28°24' W 014°50'1020.3
2017-Nov-14 14:30N 28°29' W 014°39'1120.6
2017-Nov-14 13:57N 28°34' W 014°28'2120.4
2017-Nov-14 12:56N 28°44' W 014°07'920.4
2017-Nov-14 12:30N 28°47' W 013°58'1120.8
2017-Nov-14 12:00N 28°50' W 013°46'1121.3
2017-Nov-14 11:27N 28°55' W 013°35'4 7.6
2017-Nov-14 10:57N 28°58' W 013°32'0 0.0
2017-Nov-14 10:21N 28°58' W 013°32'0 0.0
2017-Nov-14 09:57N 28°58' W 013°32'0 0.0
2017-Nov-14 09:29N 28°58' W 013°32'0 0.0
2017-Nov-14 08:59N 28°58' W 013°32'0 0.0
2017-Nov-14 08:27N 28°58' W 013°32'0 0.0
2017-Nov-14 07:58N 28°58' W 013°32'0 0.0
2017-Nov-14 07:27N 28°58' W 013°32'0 0.0
2017-Nov-14 07:00N 28°58' W 013°32'0 0.3
2017-Nov-14 06:30N 28°58' W 013°32'611.9
2017-Nov-14 06:00N 28°54' W 013°37'1120.6
2017-Nov-14 05:30N 28°49' W 013°47'1019.8
2017-Nov-14 04:59N 28°47' W 013°58'919.4
2017-Nov-14 04:30N 28°43' W 014°08'1019.8
2017-Nov-14 03:59N 28°39' W 014°19'919.5
2017-Nov-14 03:30N 28°34' W 014°28'1019.3
2017-Nov-14 03:00N 28°30' W 014°38'919.2
2017-Nov-14 02:30N 28°26' W 014°48'1019.3
2017-Nov-14 02:00N 28°21' W 014°58'1019.3
2017-Nov-14 01:30N 28°17' W 015°07'1019.5
2017-Nov-14 01:00N 28°12' W 015°17'612.9
2017-Nov-14 00:30N 28°10' W 015°24'0 0.1
2017-Nov-14 00:00N 28°10' W 015°24'0 0.0
2017-Nov-13 23:30N 28°10' W 015°24'0 0.0
2017-Nov-13 23:00N 28°10' W 015°24'0 0.0
2017-Nov-13 22:30N 28°10' W 015°24'0 0.0
2017-Nov-13 22:00N 28°10' W 015°24'48 2.4
2017-Nov-13 02:00N 28°28' W 016°15'2 3.2
2017-Nov-13 01:31N 28°29' W 016°13'1223.6
2017-Nov-13 01:00N 28°24' W 016°00'1224.2
2017-Nov-13 00:31N 28°20' W 015°48'1224.1
2017-Nov-13 00:01N 28°15' W 015°35'1223.6
2017-Nov-12 23:31N 28°10' W 015°23'1 2.7
2017-Nov-12 23:00N 28°10' W 015°24'0 0.0
2017-Nov-12 22:30N 28°10' W 015°24'0 0.0
2017-Nov-12 22:00N 28°10' W 015°24'0 0.0
2017-Nov-12 21:31N 28°10' W 015°24'1 1.4
2017-Nov-12 21:00N 28°09' W 015°23'1020.9
2017-Nov-12 20:31N 28°14' W 015°13'1224.2
2017-Nov-12 20:00N 28°19' W 015°01'1224.0
2017-Nov-12 19:30N 28°25' W 014°49'1224.2
2017-Nov-12 19:00N 28°30' W 014°36'1223.8
2017-Nov-12 18:30N 28°36' W 014°24'1223.6
2017-Nov-12 18:00N 28°41' W 014°12'1223.6
2017-Nov-12 17:31N 28°46' W 014°00'1224.4
2017-Nov-12 17:01N 28°50' W 013°47'1224.8
2017-Nov-12 16:30N 28°55' W 013°34'4 7.1
2017-Nov-12 15:59N 28°58' W 013°32'0 0.0
2017-Nov-12 15:29N 28°58' W 013°32'0 0.5
2017-Nov-12 15:00N 28°58' W 013°32'713.4
2017-Nov-12 14:30N 29°02' W 013°25'1224.0
2017-Nov-12 14:00N 29°12' W 013°17'1223.7
2017-Nov-12 13:30N 29°22' W 013°10'1223.5
2017-Nov-12 12:59N 29°32' W 013°02'1123.7
2017-Nov-12 12:30N 29°41' W 012°55'1223.9
2017-Nov-12 12:01N 29°51' W 012°47'1223.7
2017-Nov-12 11:30N 30°01' W 012°39'1223.4
2017-Nov-12 11:00N 30°10' W 012°32'1423.3
2017-Nov-12 10:24N 30°22' W 012°23'923.1
2017-Nov-12 10:00N 30°30' W 012°17'1223.3
2017-Nov-12 09:31N 30°39' W 012°09'1223.3
2017-Nov-12 09:01N 30°49' W 012°01'3623.7
2017-Nov-12 07:30N 31°19' W 011°39'1223.8
2017-Nov-12 07:00N 31°28' W 011°30'3524.0
2017-Nov-12 05:32N 31°57' W 011°06'77 1.7
2017-Nov-10 07:31N 33°09' W 010°32'021.1
2017-Nov-10 07:30N 33°08' W 010°32'1121.8
2017-Nov-10 07:01N 32°60' W 010°39'1121.5
2017-Nov-10 06:30N 32°51' W 010°47'1321.3
2017-Nov-10 05:55N 32°40' W 010°55'1121.1
2017-Nov-10 05:24N 32°31' W 011°03'1221.2
2017-Nov-10 04:50N 32°22' W 011°12'721.0
2017-Nov-10 04:29N 32°16' W 011°16'1421.0
2017-Nov-10 03:51N 32°05' W 011°26'1521.2
2017-Nov-10 03:09N 31°53' W 011°36'1521.0
2017-Nov-10 02:26N 31°41' W 011°46'3920.5
2017-Nov-10 00:31N 31°09' W 012°12'  

Dump ship's entire track history